Tiempo atmosférico en la estación meteorológica de Teror, Las Palmas (683 m.)



Fecha
DESCASC
Temp. máxima en grados centígrados (hora)
DESCASC
Temp. mínima en grados centígrados (hora)
DESCASC
Temp. media en grados centígrados
DESCASC
Racha de viento máxima en m/sg (hora)
DESCASC
Velocidad máxima media en intervalos de 10 minutos(hora)
DESCASC
Precipitaciones diarias en mm
DESCASC
Precipitaciones de 00:00 a 06:00 en mm
DESCASC
Precipitaciones de 06:00 a 12:00 en mm
DESCASC
Precipitaciones de 12:00 a 18:00 en mm
DESCASC
Precipitaciones de 18:00 a 24:00 en mm
DESCASC
02-08-2020 28.9 (14:10) 16.3 (03:00) 22.6 6.11 (12:30) 3.33 (14:50) 0 0 0 0 0
01-08-2020 25.6 (15:50) 14.4 (02:00) 20 6.11 (16:00) 3.89 (17:30) 0 0 0 0 0
31-07-2020 23.5 (13:40) 14.6 (07:10) 19.1 6.67 (15:30) 3.61 (17:20) 0 0 0 0 0
30-07-2020 23 (15:20) 15.3 (00:00) 19.2 7.78 (14:50) 4.17 (14:50) 0 0 0 0 0
29-07-2020 23.1 (14:00) 15.9 (00:00) 19.5 7.78 (16:00) 4.17 (16:00) 0 0 0 0 0
28-07-2020 23.6 (12:00) 13.9 (00:00) 18.8 6.39 (15:00) 3.61 (17:30) 0 0 0 0 0
27-07-2020 25.1 (14:30) 13 (00:00) 19.1 6.94 (19:50) 3.89 (19:40) 0 0 0 0 0
26-07-2020 23.3 (16:50) 16.1 (00:00) 19.7 8.61 (14:00) 4.72 (13:20) 0 0 0 0 0
25-07-2020 27.4 (18:00) 11.4 (00:00) 19.4 6.11 (15:30) 3.61 (12:50) 0 0 0 0 0
24-07-2020 26.4 (13:20) 12.4 (00:00) 19.4 6.94 (17:30) 3.61 (17:00) 0 0 0 0 0
23-07-2020 26.1 (15:30) 13.1 (00:00) 19.6 5 (14:50) 2.78 (13:10) 0 0 0 0 0
22-07-2020 23.2 (14:20) 13 (00:00) 18.1 6.94 (17:00) 3.33 (14:30) 0 0 0 0 0
21-07-2020 22.9 (16:50) 15.8 (00:00) 19.3 8.33 (14:50) 4.44 (14:40) 0 0 0 0 0
20-07-2020 26.2 (12:50) 16.3 (00:00) 21.3 8.06 (18:50) 5 (16:20) 0 0 0 0 0
19-07-2020 32.9 (12:00) 21 (00:00) 27 5.28 (12:30) 3.06 (17:10) 0 0 0 0 0
18-07-2020 33.3 (13:20) 19.5 (00:00) 26.4 5 (13:50) 2.78 (14:20) 0 0 0 0 0
17-07-2020 31 (13:10) 18.5 (00:00) 24.8 3.61 (13:30) 2.5 (16:30) 0 0 0 0 0
16-07-2020 27 (19:00) 13.9 (00:00) 20.4 4.72 (14:50) 2.78 (15:20) 0 0 0 0 0
15-07-2020 25.4 (10:20) 14.4 (00:00) 19.9 8.89 (03:30) 5 (15:20) 0 0 0 0 0
14-07-2020 25.6 (14:30) 12.5 (00:00) 19.1 10.28 (17:40) 6.11 (13:50) 0 0 0 0 0
13-07-2020 25.8 (13:50) 13.8 (00:00) 19.8 7.22 (18:10) 3.89 (16:20) 0 0 0 0 0
12-07-2020 27 (15:30) 12.9 (03:50) 19.9 4.72 (14:10) 2.5 (01:50) 0 0 0 0 0
11-07-2020 26.2 (13:40) 14 (23:59) 20.1 8.33 (14:30) 3.61 (15:40) 0 0 0 0 0
10-07-2020 24 (16:20) 15.4 (00:00) 19.7 7.78 (17:30) 4.72 (16:30) 0 0 0 0 0
09-07-2020 29.3 (11:20) 14.6 (22:30) 21.9 6.39 (23:10) 3.89 (23:10) 0 0 0 0 0
08-07-2020 33.4 (12:00) 19.8 (22:20) 26.6 5.56 (15:40) 2.78 (15:30) 0 0 0 0 0

Gráficas

Temp. máximas Temp. mínimas Temp. medias Precipitaciones Rachas de viento máximas Velocidades máximas media en intervalos de 10 minutos

Datos horarios

Fecha y hora oficial Temperatura (ºC) Velocidad del viento (km/h) Dirección del viento Racha (km/h) Dirección de racha Precipitación (mm) Presión (hPa) Tendencia (hPa) Humedad (%)
2020-08-06 23:00:00 17.1 9 Noroeste 22 Noroeste 0 -- -- 88
2020-08-06 22:00:00 16.6 15 Noroeste 29 Noroeste 0 -- -- 90
2020-08-06 21:00:00 17.1 15 Noroeste 29 Noroeste 0 -- -- 89
2020-08-06 20:00:00 18.1 11 Noroeste 32 Noroeste 0 -- -- 88
2020-08-06 19:00:00 18.9 17 Noroeste 34 Noroeste 0 -- -- 85
2020-08-06 18:00:00 22.6 16 Noroeste 31 Noroeste 0 -- -- 65
2020-08-06 17:00:00 22.9 18 Norte 35 Norte 0 -- -- 64
2020-08-06 16:00:00 23 15 Norte 31 Norte 0 -- -- 64
2020-08-06 15:00:00 23.2 13 Norte 26 Norte 0 -- -- 66
2020-08-06 14:00:00 23.6 13 Norte 27 Norte 0 -- -- 64
2020-08-06 13:00:00 23.7 15 Norte 30 Noroeste 0 -- -- 65
2020-08-06 12:00:00 22.7 17 Norte 31 Noroeste 0 -- -- 67
2020-08-06 11:00:00 21.3 16 Norte 27 Norte 0 -- -- 72
2020-08-06 10:00:00 17.9 6 Noroeste 22 Noroeste 0 -- -- 87
2020-08-06 09:00:00 16.7 8 Oeste 18 Noroeste 0 -- -- 90
2020-08-06 08:00:00 16.1 6 Oeste 17 Noroeste 0 -- -- 91
2020-08-06 07:00:00 16 9 Oeste 24 Oeste 0 -- -- 91
2020-08-06 06:00:00 15.7 11 Oeste 23 Oeste 0 -- -- 90
2020-08-06 05:00:00 16.1 6 Oeste 26 Noroeste 0 -- -- 89
2020-08-06 04:00:00 15.9 9 Noroeste 21 Noroeste 0 -- -- 91
2020-08-06 03:00:00 16 12 Oeste 27 Oeste 0 -- -- 89
2020-08-06 02:00:00 16.3 10 Oeste 27 Noroeste 0 -- -- 88
2020-08-06 01:00:00 16.4 13 Noroeste 28 Oeste 0 -- -- 87
2020-08-06 00:00:00 16.5 15 Oeste 31 Oeste 0 -- -- 89
2020-08-05 23:00:00 16.7 14 Oeste 30 Oeste 0 -- -- 89
2020-08-05 22:00:00 16.6 18 Oeste 29 Oeste 0 -- -- 88
2020-08-05 21:00:00 16.9 12 Noroeste 28 Noroeste 0 -- -- 87
2020-08-05 20:00:00 18.2 13 Noroeste 24 Noroeste 0 -- -- 84
2020-08-05 19:00:00 21.5 13 Noroeste 30 Noroeste 0 -- -- 72
2020-08-05 18:00:00 23.3 15 Noroeste 27 Noroeste 0 -- -- 64
2020-08-05 17:00:00 24.2 17 Noroeste 29 Norte 0 -- -- 61
2020-08-05 16:00:00 25.6 17 Noroeste 26 Noroeste 0 -- -- 55
2020-08-05 15:00:00 25.9 14 Norte 27 Noroeste 0 -- -- 55
2020-08-05 14:00:00 25.1 16 Norte 27 Norte 0 -- -- 57
2020-08-05 13:00:00 25.9 13 Norte 24 Norte 0 -- -- 54
2020-08-05 12:00:00 24.3 15 Noroeste 24 Norte 0 -- -- 57
2020-08-05 11:00:00 26 9 Noroeste 15 Noroeste 0 -- -- 52
2020-08-05 10:00:00 23.9 8 Noroeste 17 Norte 0 -- -- 60
2020-08-05 09:00:00 18.9 3 Este 19 Noroeste 0 -- -- 82
2020-08-05 08:00:00 16.1 6 Norte 19 Oeste 0 -- -- 93
2020-08-05 07:00:00 16.1 5 Noroeste 13 Norte 0 -- -- 92
2020-08-05 06:00:00 16 5 Oeste 13 Noroeste 0 -- -- 93
2020-08-05 05:00:00 16.8 5 Noroeste 15 Oeste 0 -- -- 92
2020-08-05 04:00:00 16.8 7 Noroeste 13 Norte 0 -- -- 95
2020-08-05 03:00:00 16.9 7 Noroeste 16 Oeste 0 -- -- 94
2020-08-05 02:00:00 17.1 8 Noroeste 19 Noroeste 0 -- -- 93
2020-08-05 01:00:00 17.1 7 Noroeste 19 Norte 0 -- -- 93
2020-08-05 00:00:00 17.2 6 Oeste 18 Noroeste 0 -- -- 93
2020-08-04 23:00:00 17.2 8 Noroeste 17 Noroeste 0 -- -- 90
2020-08-04 22:00:00 17.4 7 Noroeste 19 Noroeste 0 -- -- 91
2020-08-04 21:00:00 17.6 8 Noroeste 21 Noroeste 0 -- -- 90
2020-08-04 20:00:00 18.1 13 Noroeste 22 Noroeste 0 -- -- 84
2020-08-04 19:00:00 21.2 13 Norte 24 Norte 0 -- -- 74
2020-08-04 18:00:00 22.5 14 Norte 25 Norte 0 -- -- 69
2020-08-04 17:00:00 24.2 13 Norte 28 Norte 0 -- -- 65
2020-08-04 16:00:00 24.7 14 Norte 26 Norte 0 -- -- 64
2020-08-04 15:00:00 24.6 13 Norte 23 Norte 0 -- -- 64
2020-08-04 14:00:00 24.2 11 Norte 22 Norte 0 -- -- 65
2020-08-04 13:00:00 21.7 10 Norte 17 Norte 0 -- -- 77
2020-08-04 12:00:00 19.6 8 Norte 15 Norte 0 -- -- 88
2020-08-04 11:00:00 18.6 5 Norte 12 Norte 0 -- -- 91
2020-08-04 10:00:00 17.8 2 Norte 10 Norte 0.2 -- -- 95
2020-08-04 09:00:00 17.1 5 Norte 15 Norte 0.2 -- -- 97
2020-08-04 08:00:00 16.7 5 Noroeste 15 Noroeste 0 -- -- 96
2020-08-04 07:00:00 16.6 7 Oeste 16 Oeste 0 -- -- 93
2020-08-04 06:00:00 16.5 8 Oeste 19 Oeste 0 -- -- 90
2020-08-04 05:00:00 15.7 6 Noroeste 18 Noroeste 0 -- -- 84
2020-08-04 04:00:00 16.3 7 Noroeste 22 Noroeste 0 -- -- 77
2020-08-04 03:00:00 16.7 4 Noroeste 14 Oeste 0 -- -- 49
2020-08-04 02:00:00 17.2 4 Oeste 14 Norte 0 -- -- 30
2020-08-04 01:00:00 18.2 5 Oeste 14 Oeste 0 -- -- 28
2020-08-04 00:00:00 19.1 4 Sudoeste 9 Oeste 0 -- -- 26
2020-08-03 23:00:00 20.3 5 Oeste 12 Oeste 0 -- -- 23
2020-08-03 22:00:00 18.9 3 Noroeste 14 Noroeste 0 -- -- 32
2020-08-03 21:00:00 21 5 Oeste 20 Noroeste 0 -- -- 25
2020-08-03 20:00:00 23.2 4 Noroeste 20 Noroeste 0 -- -- 21
2020-08-03 19:00:00 26.7 7 Norte 23 Noroeste 0 -- -- 16
2020-08-03 18:00:00 26.7 9 Noroeste 21 Noroeste 0 -- -- 22
2020-08-03 17:00:00 26.3 11 Norte 22 Noroeste 0 -- -- 27
2020-08-03 16:00:00 27.4 9 Norte 23 Nordeste 0 -- -- 30
2020-08-03 15:00:00 27.3 10 Norte 21 Norte 0 -- -- 40
2020-08-03 14:00:00 27.5 10 Norte 19 Nordeste 0 -- -- 51
2020-08-03 13:00:00 27.3 8 Nordeste 17 Nordeste 0 -- -- 48
2020-08-03 12:00:00 27.3 9 Nordeste 19 Nordeste 0 -- -- 52
2020-08-03 11:00:00 26.3 8 Este 14 Nordeste 0 -- -- 58
2020-08-03 10:00:00 27.3 5 Nordeste 10 Nordeste 0 -- -- 54
2020-08-03 09:00:00 26.8 2 Nordeste 18 Norte 0 -- -- 42
2020-08-03 08:00:00 20.8 5 Noroeste 15 Noroeste 0 -- -- 55
2020-08-03 07:00:00 19.8 6 Noroeste 14 Noroeste 0 -- -- 58
2020-08-03 06:00:00 19.5 6 Noroeste 12 Norte 0 -- -- 53
2020-08-03 05:00:00 19.5 6 Oeste 12 Noroeste 0 -- -- 54
2020-08-03 04:00:00 19.2 4 Oeste 14 Noroeste 0 -- -- 60
2020-08-03 03:00:00 19.3 4 Oeste 13 Oeste 0 -- -- 57
2020-08-03 02:00:00 19.7 5 Noroeste 15 Norte 0 -- -- 50
2020-08-03 01:00:00 19.9 7 Noroeste 14 Norte 0 -- -- 49
2020-08-03 00:00:00 18.7 6 Noroeste 10 Oeste 0 -- -- 56
2020-08-02 23:00:00 19.5 3 Sur 12 Nordeste 0 -- -- 56
2020-08-02 22:00:00 19.9 8 Oeste 15 Sudoeste 0 -- -- 42
2020-08-02 21:00:00 21.7 7 Sudoeste 17 Sur 0 -- -- 49
2020-08-02 20:00:00 22.5 5 Sur 14 Nordeste 0 -- -- 56
2020-08-02 19:00:00 25 3 Noroeste 13 Nordeste 0 -- -- 65
2020-08-02 18:00:00 27.3 6 Este 14 Nordeste 0 -- -- 55
2020-08-02 17:00:00 28.2 4 Norte 15 Norte 0 -- -- 37
2020-08-02 16:00:00 26.9 7 Nordeste 18 Este 0 -- -- 56
2020-08-02 15:00:00 28.1 9 Nordeste 18 Nordeste 0 -- -- 55
2020-08-02 14:00:00 28.4 9 Nordeste 18 Nordeste 0 -- -- 43
2020-08-02 13:00:00 27.8 9 Norte 22 Este 0 -- -- 53
2020-08-02 12:00:00 26.1 10 Nordeste 15 Nordeste 0 -- -- 62
2020-08-02 11:00:00 24.2 5 Nordeste 10 Nordeste 0 -- -- 66
2020-08-02 10:00:00 27 4 Nordeste 8 Nordeste 0 -- -- 54
2020-08-02 09:00:00 27.2 5 Norte 9 Noroeste 0 -- -- 18
2020-08-02 08:00:00 20.8 6 Noroeste 9 Noroeste 0 -- -- 29
2020-08-02 07:00:00 19.7 3 Oeste 10 Noroeste 0 -- -- 36
2020-08-02 06:00:00 19.3 2 Oeste 8 Noroeste 0 -- -- 35
2020-08-02 05:00:00 19.9 4 Oeste 8 Nordeste 0 -- -- 67
2020-08-02 04:00:00 19.3 4 Oeste 10 Oeste 0 -- -- 34
2020-08-02 03:00:00 16.3 2 Noroeste 8 Sudoeste 0 -- -- 89
2020-08-02 02:00:00 17.2 0 Calma 8 Oeste 0 -- -- 92
2020-08-02 01:00:00 16.9 3 Sudeste 6 Este 0 -- -- 92
2020-08-02 00:00:00 18.3 0 Calma 9 Oeste 0 -- -- 85
2020-08-01 23:00:00 20.6 6 Noroeste 9 Oeste 0 -- -- 48
2020-08-01 22:00:00 22.6 5 Oeste 14 Oeste 0 -- -- 42
2020-08-01 21:00:00 22.1 8 Oeste 15 Noroeste 0 -- -- 30
2020-08-01 20:00:00 23.9 6 Noroeste 17 Noroeste 0 -- -- 30
2020-08-01 19:00:00 25.5 8 Norte 21 Nordeste 0 -- -- 44
2020-08-01 18:00:00 24.5 10 Nordeste 22 Nordeste 0 -- -- 67
2020-08-01 17:00:00 24.1 12 Nordeste 22 Nordeste 0 -- -- 69
2020-08-01 16:00:00 25.5 13 Nordeste 22 Norte 0 -- -- 64
2020-08-01 15:00:00 24.9 11 Nordeste 21 Nordeste 0 -- -- 65
2020-08-01 14:00:00 24.5 8 Nordeste 16 Nordeste 0 -- -- 68
2020-08-01 13:00:00 24.4 9 Nordeste 19 Nordeste 0 -- -- 68
2020-08-01 12:00:00 24.4 6 Nordeste 14 Este 0 -- -- 68
2020-08-01 11:00:00 23.4 4 Este 12 Nordeste 0 -- -- 71
2020-08-01 10:00:00 19.9 4 Este 9 Nordeste 0 -- -- 86
2020-08-01 09:00:00 20.1 3 Nordeste 6 Nordeste 0 -- -- 84
2020-08-01 08:00:00 17.4 2 Este 7 Norte 0 -- -- 94
2020-08-01 07:00:00 18.3 0 Calma 0 Calma 0 -- -- 67
2020-08-01 06:00:00 17.2 0 Calma 4 Oeste 0 -- -- 68
2020-08-01 05:00:00 19.7 2 Noroeste 6 Sudoeste 0 -- -- 35
2020-08-01 04:00:00 17.2 5 Oeste 8 Oeste 0 -- -- 50
2020-08-01 03:00:00 16.4 0 Calma 9 Oeste 0 -- -- 71
2020-08-01 02:00:00 14.4 6 Oeste 9 Oeste 0 -- -- 88
2020-08-01 01:00:00 16.6 2 Sudeste 7 Norte 0 -- -- 96
2020-08-01 00:00:00 16.7 2 Noroeste 6 Oeste 0 -- -- 96
2020-07-31 23:00:00 17 0 Calma 9 Norte 0 -- -- 96
2020-07-31 22:00:00 17.2 3 Norte 9 Norte 0 -- -- 96
2020-07-31 21:00:00 17.5 3 Norte 13 Norte 0 -- -- 93
2020-07-31 20:00:00 17.9 6 Norte 19 Norte 0 -- -- 91
2020-07-31 19:00:00 20.3 11 Norte 21 Norte 0 -- -- 81
2020-07-31 18:00:00 21.4 9 Norte 20 Norte 0 -- -- 74
2020-07-31 17:00:00 22.2 12 Norte 22 Norte 0 -- -- 73
2020-07-31 16:00:00 22.9 9 Nordeste 24 Nordeste 0 -- -- 68
2020-07-31 15:00:00 23.5 10 Nordeste 19 Norte 0 -- -- 67
2020-07-31 14:00:00 23.3 9 Nordeste 19 Nordeste 0 -- -- 69
2020-07-31 13:00:00 22.6 9 Nordeste 17 Nordeste 0 -- -- 70
2020-07-31 12:00:00 22.5 7 Nordeste 16 Nordeste 0 -- -- 70
2020-07-31 11:00:00 19.3 7 Nordeste 13 Nordeste 0 -- -- 81
2020-07-31 10:00:00 18.8 4 Nordeste 13 Este 0 -- -- 82
2020-07-31 09:00:00 16.9 4 Este 9 Este 0 -- -- 93
2020-07-31 08:00:00 15.8 2 Norte 9 Oeste 0 -- -- 97
2020-07-31 07:00:00 14.9 3 Sur 14 Sudoeste 0 -- -- 95
2020-07-31 06:00:00 16.1 8 Sudeste 14 Sudeste 0 -- -- 95
2020-07-31 05:00:00 16.2 0 Calma 6 Este 0 -- -- 96
2020-07-31 04:00:00 16.1 0 Calma 7 Sudeste 0 -- -- 95
2020-07-31 03:00:00 16.2 2 Sudeste 12 Nordeste 0 -- -- 94
2020-07-31 02:00:00 16.3 4 Este 9 Este 0 -- -- 94
2020-07-31 01:00:00 16.3 4 Este 12 Nordeste 0 -- -- 93
2020-07-31 00:00:00 16.3 5 Norte 11 Norte 0 -- -- 93
2020-07-30 23:00:00 16.5 3 Norte 9 Noroeste 0 -- -- 92
2020-07-30 22:00:00 16.6 5 Norte 13 Noroeste 0 -- -- 91
2020-07-30 21:00:00 16.8 6 Norte 13 Norte 0 -- -- 90
2020-07-30 20:00:00 17.8 6 Norte 13 Norte 0 -- -- 85
2020-07-30 19:00:00 18.2 8 Norte 15 Norte 0 -- -- 84
2020-07-30 18:00:00 20.4 9 Nordeste 18 Nordeste 0 -- -- 76
2020-07-30 17:00:00 20.5 11 Nordeste 22 Nordeste 0 -- -- 74
2020-07-30 16:00:00 22.4 10 Nordeste 22 Norte 0 -- -- 66
2020-07-30 15:00:00 21.8 11 Norte 28 Nordeste 0 -- -- 66
2020-07-30 14:00:00 22.2 14 Norte 23 Norte 0 -- -- 66
2020-07-30 13:00:00 22.1 10 Nordeste 21 Nordeste 0 -- -- 66
2020-07-30 12:00:00 21.9 8 Norte 19 Nordeste 0 -- -- 68
2020-07-30 11:00:00 21.3 9 Nordeste 19 Este 0 -- -- 67
2020-07-30 10:00:00 20 4 Nordeste 12 Este 0 -- -- 71
2020-07-30 09:00:00 16.4 5 Nordeste 10 Nordeste 0 -- -- 88
2020-07-30 08:00:00 15.6 4 Nordeste 9 Nordeste 0 -- -- 93
2020-07-30 07:00:00 15.4 2 Sur 16 Noroeste 0 -- -- 93
2020-07-30 06:00:00 15.5 6 Norte 14 Noroeste 0 -- -- 92
2020-07-30 05:00:00 15.7 5 Norte 13 Noroeste 0 -- -- 91
2020-07-30 04:00:00 15.6 5 Noroeste 16 Norte 0 -- -- 90
2020-07-30 03:00:00 15.9 5 Noroeste 13 Noroeste 0 -- -- 89
2020-07-30 02:00:00 16.1 7 Norte 14 Noroeste 0 -- -- 90
2020-07-30 01:00:00 16.4 8 Noroeste 16 Noroeste 0 -- -- 91
2020-07-30 00:00:00 16.4 9 Noroeste 15 Norte 0 -- -- 91
2020-07-29 23:00:00 16.4 8 Noroeste 17 Noroeste 0 -- -- 89
2020-07-29 22:00:00 16.5 6 Norte 22 Noroeste 0 -- -- 90
2020-07-29 21:00:00 16.8 10 Noroeste 17 Noroeste 0 -- -- 89
2020-07-29 20:00:00 17.6 6 Noroeste 23 Noroeste 0 -- -- 85
2020-07-29 19:00:00 18.3 11 Norte 20 Norte 0 -- -- 84
2020-07-29 18:00:00 21.7 13 Norte 22 Norte 0 -- -- 68
2020-07-29 17:00:00 21.1 9 Norte 24 Norte 0 -- -- 70
2020-07-29 16:00:00 22.8 15 Norte 28 Norte 0 -- -- 64
2020-07-29 15:00:00 22.8 11 Norte 27 Norte 0 -- -- 64
2020-07-29 14:00:00 23.1 11 Norte 21 Norte 0 -- -- 64
2020-07-29 13:00:00 19.6 9 Nordeste 18 Nordeste 0 -- -- 78
2020-07-29 12:00:00 18.9 6 Norte 21 Norte 0 -- -- 82
2020-07-29 11:00:00 17.8 10 Norte 16 Norte 0 -- -- 89
2020-07-29 10:00:00 17.1 6 Norte 15 Norte 0 -- -- 90
2020-07-29 09:00:00 16.5 4 Noroeste 15 Noroeste 0 -- -- 93
2020-07-29 08:00:00 16 6 Noroeste 13 Noroeste 0 -- -- 95
2020-07-29 07:00:00 15.9 5 Norte 15 Norte 0 -- -- 95
2020-07-29 06:00:00 15.9 5 Norte 15 Noroeste 0 -- -- 95
2020-07-29 05:00:00 16.2 3 Oeste 21 Noroeste 0 -- -- 94
2020-07-29 04:00:00 16.3 7 Noroeste 14 Oeste 0 -- -- 94
2020-07-29 03:00:00 16.3 5 Noroeste 17 Noroeste 0 -- -- 95
2020-07-29 02:00:00 16.3 6 Noroeste 17 Noroeste 0 -- -- 94
2020-07-29 01:00:00 16.6 6 Noroeste 15 Noroeste 0 -- -- 96
2020-07-29 00:00:00 16.4 9 Noroeste 15 Noroeste 0 -- -- 96
2020-07-28 23:00:00 16.7 5 Noroeste 21 Oeste 0 -- -- 96
2020-07-28 22:00:00 16.7 8 Noroeste 16 Noroeste 0 -- -- 92
2020-07-28 21:00:00 16.9 6 Oeste 14 Noroeste 0 -- -- 94
2020-07-28 20:00:00 17.5 5 Noroeste 14 Norte 0 -- -- 92
2020-07-28 19:00:00 19.5 8 Norte 21 Norte 0 -- -- 85
2020-07-28 18:00:00 21.4 10 Norte 22 Norte 0 -- -- 77
2020-07-28 17:00:00 22 11 Norte 21 Norte 0 -- -- 72
2020-07-28 16:00:00 22.5 12 Nordeste 20 Norte 0 -- -- 71
2020-07-28 15:00:00 22.4 12 Norte 23 Norte 0 -- -- 71
2020-07-28 14:00:00 23.1 11 Norte 18 Norte 0 -- -- 71
2020-07-28 13:00:00 22.7 10 Norte 18 Norte 0 -- -- 72
2020-07-28 12:00:00 23.6 8 Nordeste 16 Nordeste 0 -- -- 69
2020-07-28 11:00:00 23 7 Nordeste 12 Nordeste 0 -- -- 72
2020-07-28 10:00:00 21.7 5 Nordeste 9 Nordeste 0 -- -- 75
2020-07-28 09:00:00 18.4 4 Norte 7 Norte 0 -- -- 89
2020-07-28 08:00:00 15.8 0 Calma 6 Noroeste 0 -- -- 97
2020-07-28 07:00:00 14.7 4 Norte 11 Oeste 0 -- -- 96
2020-07-28 06:00:00 14 2 Oeste 7 Noroeste 0 -- -- 90
2020-07-28 05:00:00 14 4 Noroeste 8 Norte 0 -- -- 91
2020-07-28 04:00:00 14.8 4 Noroeste 11 Oeste 0 -- -- 82
2020-07-28 03:00:00 14.9 6 Oeste 10 Oeste 0 -- -- 87
2020-07-28 02:00:00 16.3 5 Norte 11 Noroeste 0 -- -- 94
2020-07-28 01:00:00 17.2 0 Calma 7 Oeste 0 -- -- 94
2020-07-28 00:00:00 17.1 3 Oeste 13 Noroeste 0 -- -- 94
2020-07-27 23:00:00 17.1 5 Noroeste 12 Noroeste 0 -- -- 94
2020-07-27 22:00:00 17.2 6 Noroeste 16 Oeste 0 -- -- 92
2020-07-27 21:00:00 17.4 9 Noroeste 21 Noroeste 0 -- -- 92
2020-07-27 20:00:00 18 14 Noroeste 25 Noroeste 0 -- -- 89
2020-07-27 19:00:00 20.6 13 Norte 21 Norte 0 -- -- 80
2020-07-27 18:00:00 21.8 12 Norte 21 Norte 0 -- -- 74
2020-07-27 17:00:00 23.3 12 Norte 24 Nordeste 0 -- -- 67
2020-07-27 16:00:00 23.7 12 Nordeste 21 Nordeste 0 -- -- 67
2020-07-27 15:00:00 24.2 11 Nordeste 17 Este 0 -- -- 64
2020-07-27 14:00:00 24.4 8 Nordeste 15 Norte 0 -- -- 62
2020-07-27 13:00:00 24.5 8 Nordeste 14 Nordeste 0 -- -- 61
2020-07-27 12:00:00 22.8 7 Nordeste 15 Este 0 -- -- 67
2020-07-27 11:00:00 21.3 8 Nordeste 14 Nordeste 0 -- -- 71
2020-07-27 08:00:00 -- -- -- -- -- -- -- -- --
2020-07-27 07:00:00 13 2 Noroeste 10 Oeste 0 -- -- 95
2020-07-27 06:00:00 14.8 3 Norte 14 Nordeste 0 -- -- 94
2020-07-27 05:00:00 15.9 3 Sudoeste 10 Norte 0 -- -- 96
2020-07-27 04:00:00 16.3 5 Noroeste 13 Oeste 0 -- -- 97
2020-07-27 03:00:00 16.2 7 Norte 14 Norte 0 -- -- 96
2020-07-27 02:00:00 16.2 2 Oeste 14 Oeste 0 -- -- 96
2020-07-27 01:00:00 16.3 6 Noroeste 15 Noroeste 0 -- -- 95
2020-07-27 00:00:00 16.4 5 Noroeste 14 Noroeste 0 -- -- 93
2020-07-26 23:00:00 16.6 8 Norte 15 Oeste 0 -- -- 92
2020-07-26 22:00:00 16.9 6 Noroeste 15 Norte 0 -- -- 91
2020-07-26 21:00:00 17.1 8 Norte 19 Noroeste 0 -- -- 90
2020-07-26 20:00:00 17.3 10 Norte 19 Noroeste 0 -- -- 86
2020-07-26 19:00:00 20.8 8 Norte 18 Nordeste 0 -- -- 70
2020-07-26 18:00:00 21.4 10 Norte 21 Norte 0 -- -- 71
2020-07-26 17:00:00 22.2 8 Norte 19 Norte 0 -- -- 70
2020-07-26 16:00:00 22 9 Norte 23 Norte 0 -- -- 71
2020-07-26 15:00:00 23.1 12 Norte 26 Norte 0 -- -- 65
2020-07-26 14:00:00 22.7 15 Norte 31 Norte 0 -- -- 66
2020-07-26 13:00:00 23.1 14 Norte 26 Norte 0 -- -- 63
2020-07-26 12:00:00 22.7 14 Norte 23 Norte 0 -- -- 67
2020-07-26 11:00:00 19.2 9 Noroeste 20 Noroeste 0 -- -- 80
2020-07-26 10:00:00 18.1 9 Norte 14 Norte 0 -- -- 87
2020-07-26 09:00:00 17.5 8 Noroeste 16 Noroeste 0 -- -- 88
2020-07-26 08:00:00 16.5 8 Noroeste 15 Noroeste 0 -- -- 94
2020-07-26 07:00:00 16.5 5 Noroeste 19 Noroeste 0 -- -- 92
2020-07-26 06:00:00 16.6 10 Noroeste 21 Oeste 0 -- -- 91
2020-07-26 05:00:00 16.5 8 Noroeste 17 Noroeste 0 -- -- 92
2020-07-26 04:00:00 16.6 5 Noroeste 13 Sudoeste 0 -- -- 92
2020-07-26 03:00:00 16.5 6 Oeste 16 Noroeste 0 -- -- 91
2020-07-26 02:00:00 16.1 6 Oeste 13 Oeste 0 -- -- 91
2020-07-26 01:00:00 16.5 4 Oeste 13 Noroeste 0 -- -- 90
2020-07-26 00:00:00 16.9 3 Oeste 13 Noroeste 0 -- -- 90
2020-07-25 23:00:00 16.4 4 Oeste 17 Noroeste 0 -- -- 88
2020-07-25 22:00:00 15.8 6 Norte 16 Noroeste 0 -- -- 85
2020-07-25 21:00:00 15.4 2 Oeste 11 Sudoeste 0 -- -- 71
2020-07-25 20:00:00 19.3 3 Sudoeste 14 Noroeste 0 -- -- 60
2020-07-25 19:00:00 24.7 9 Noroeste 18 Noroeste 0 -- -- 48
2020-07-25 18:00:00 27.4 8 Noroeste 19 Noroeste 0 -- -- 42
2020-07-25 17:00:00 25.7 12 Noroeste 20 Norte 0 -- -- 48
2020-07-25 16:00:00 25.9 11 Norte 22 Norte 0 -- -- 48
2020-07-25 15:00:00 25.7 12 Norte 20 Norte 0 -- -- 54
2020-07-25 14:00:00 26.4 11 Norte 21 Norte 0 -- -- 53
2020-07-25 13:00:00 25.4 11 Nordeste 18 Norte 0 -- -- 57
2020-07-25 12:00:00 26.7 9 Nordeste 18 Nordeste 0 -- -- 43
2020-07-25 11:00:00 25 8 Norte 17 Noroeste 0 -- -- 40
2020-07-25 10:00:00 23.2 8 Norte 13 Norte 0 -- -- 56
2020-07-25 09:00:00 23.3 4 Nordeste 15 Noroeste 0 -- -- 53
2020-07-25 08:00:00 16.1 3 Sudoeste 10 Noroeste 0 -- -- 75
2020-07-25 07:00:00 12 2 Oeste 12 Noroeste 0 -- -- 97
2020-07-25 06:00:00 12 2 Oeste 9 Noroeste 0 -- -- 97
2020-07-25 05:00:00 12.2 2 Noroeste 12 Noroeste 0 -- -- 97
2020-07-25 04:00:00 12.6 0 Calma 7 Noroeste 0 -- -- 97
2020-07-25 03:00:00 12.8 0 Calma 5 Noroeste 0 -- -- 95
2020-07-25 02:00:00 14 2 Sudeste 6 Noroeste 0 -- -- 93
2020-07-25 01:00:00 13.9 2 Oeste 6 Noroeste 0 -- -- 94
2020-07-25 00:00:00 14.2 2 Noroeste 5 Noroeste 0 -- -- 97
2020-07-24 23:00:00 14.4 0 Calma 5 Norte 0 -- -- 95
2020-07-24 22:00:00 14.8 0 Calma 7 Norte 0 -- -- 93
2020-07-24 21:00:00 16.2 0 Calma 5 Sur 0 -- -- 90
2020-07-24 20:00:00 19.7 3 Sur 8 Sudeste 0 -- -- 80
2020-07-24 19:00:00 24 5 Este 20 Noroeste 0 -- -- 65
2020-07-24 18:00:00 24.2 10 Nordeste 25 Norte 0 -- -- 66
2020-07-24 17:00:00 24.4 13 Nordeste 22 Norte 0 -- -- 64
2020-07-24 16:00:00 25.7 10 Nordeste 21 Nordeste 0 -- -- 59
2020-07-24 15:00:00 25.3 10 Nordeste 21 Nordeste 0 -- -- 61
2020-07-24 14:00:00 25.8 10 Nordeste 18 Nordeste 0 -- -- 59
2020-07-24 13:00:00 25.9 9 Nordeste 16 Nordeste 0 -- -- 58
2020-07-24 12:00:00 23.4 10 Nordeste 21 Nordeste 0 -- -- 66
2020-07-24 11:00:00 22.4 9 Nordeste 21 Norte 0 -- -- 69
2020-07-24 10:00:00 22.4 8 Norte 17 Norte 0 -- -- 68
2020-07-24 09:00:00 20.6 4 Sur 9 Nordeste 0 -- -- 73
2020-07-24 08:00:00 13.3 2 Sur 5 Sur 0 -- -- 95
2020-07-24 07:00:00 12.9 0 Calma 15 Norte 0 -- -- 96
2020-07-24 06:00:00 12.8 2 Sur 5 Sudoeste 0 -- -- 94
2020-07-24 05:00:00 13.2 0 Calma 6 Sur 0 -- -- 85
2020-07-24 04:00:00 13.5 0 Calma 6 Sur 0 -- -- 90
2020-07-24 03:00:00 14.2 0 Calma 6 Sur 0 -- -- 82
2020-07-24 02:00:00 15.2 2 Oeste 6 Oeste 0 -- -- 69
2020-07-24 01:00:00 16.5 3 Noroeste 9 Oeste 0 -- -- 57
2020-07-24 00:00:00 16.7 4 Noroeste 7 Oeste 0 -- -- 51
2020-07-23 23:00:00 15.6 0 Calma 5 Oeste 0 -- -- 61
2020-07-23 22:00:00 17.3 4 Noroeste 8 Noroeste 0 -- -- 49
2020-07-23 21:00:00 17.6 2 Sudoeste 8 Sudoeste 0 -- -- 76
2020-07-23 20:00:00 20.6 0 Calma 10 Nordeste 0 -- -- 77
2020-07-23 19:00:00 24.3 4 Nordeste 12 Nordeste 0 -- -- 65
2020-07-23 18:00:00 24.6 7 Nordeste 15 Nordeste 0 -- -- 63
2020-07-23 17:00:00 25.3 6 Nordeste 15 Nordeste 0 -- -- 62
2020-07-23 16:00:00 25.6 8 Nordeste 17 Este 0 -- -- 61
2020-07-23 15:00:00 24.9 10 Nordeste 18 Nordeste 0 -- -- 63
2020-07-23 14:00:00 25.5 8 Nordeste 17 Nordeste 0 -- -- 61
2020-07-23 13:00:00 25 8 Nordeste 14 Norte 0 -- -- 61
2020-07-23 12:00:00 23.9 8 Nordeste 14 Nordeste 0 -- -- 65
2020-07-23 11:00:00 24.2 8 Nordeste 13 Este 0 -- -- 63
2020-07-23 10:00:00 23.2 4 Nordeste 9 Este 0 -- -- 67
2020-07-23 09:00:00 21.2 4 Nordeste 11 Norte 0 -- -- 72
2020-07-23 08:00:00 16.9 2 Sur 12 Norte 0 -- -- 68
2020-07-23 07:00:00 17.4 4 Oeste 10 Oeste 0 -- -- 52
2020-07-23 06:00:00 17.6 3 Oeste 12 Norte 0 -- -- 54
2020-07-23 05:00:00 16.7 5 Oeste 9 Oeste 0 -- -- 62
2020-07-23 04:00:00 19.1 4 Nordeste 14 Nordeste 0 -- -- 53
2020-07-23 03:00:00 18.3 5 Oeste 14 Este 0 -- -- 59
2020-07-23 02:00:00 16.4 5 Oeste 10 Oeste 0 -- -- 69
2020-07-23 01:00:00 16.2 3 Noroeste 7 Oeste 0 -- -- 61
2020-07-23 00:00:00 13.1 3 Noroeste 8 Sudoeste 0 -- -- 95
2020-07-22 23:00:00 14.2 5 Noroeste 14 Noroeste 0 -- -- 94
2020-07-22 22:00:00 16.5 6 Noroeste 14 Noroeste 0 -- -- 93
2020-07-22 21:00:00 17.3 6 Noroeste 14 Noroeste 0 -- -- 91
2020-07-22 20:00:00 18.2 5 Norte 17 Norte 0 -- -- 86
2020-07-22 19:00:00 19.9 10 Norte 19 Norte 0 -- -- 79
2020-07-22 18:00:00 21.7 11 Nordeste 18 Norte 0 -- -- 73
2020-07-22 17:00:00 22.9 12 Nordeste 25 Nordeste 0 -- -- 68
2020-07-22 16:00:00 22.3 10 Nordeste 19 Norte 0 -- -- 70
2020-07-22 15:00:00 23 9 Norte 22 Nordeste 0 -- -- 68
2020-07-22 14:00:00 22.5 11 Norte 19 Nordeste 0 -- -- 69
2020-07-22 13:00:00 22.3 9 Norte 17 Norte 0 -- -- 69
2020-07-22 12:00:00 20 9 Norte -- -- -- -- -- 80
2020-07-22 11:00:00 -- -- -- -- -- -- -- -- --
2020-07-22 10:00:00 17.7 6 Nordeste 14 Noroeste 0 -- -- 87
2020-07-22 09:00:00 16.8 6 Norte 15 Norte 0 -- -- 92
2020-07-22 08:00:00 16.4 6 Noroeste 14 Noroeste 0 -- -- 95
2020-07-22 07:00:00 16.2 8 Norte 14 Noroeste 0 -- -- 94
2020-07-22 06:00:00 16.3 5 Norte 13 Norte 0 -- -- 94
2020-07-22 05:00:00 16.3 8 Oeste 13 Oeste 0 -- -- 93
2020-07-22 04:00:00 16.5 5 Noroeste 14 Norte 0 -- -- 93
2020-07-22 03:00:00 16.6 6 Norte 13 Norte 0 -- -- 93
2020-07-22 02:00:00 16.8 6 Noroeste 14 Noroeste 0 -- -- 93
2020-07-22 01:00:00 16.6 5 Noroeste 16 Norte 0 -- -- 91
2020-07-22 00:00:00 16.6 6 Noroeste 14 Norte 0 -- -- 90
2020-07-21 23:00:00 16.7 5 Noroeste 14 Noroeste 0 -- -- 90
2020-07-21 22:00:00 16.7 6 Noroeste 15 Norte 0 -- -- 89
2020-07-21 21:00:00 17.1 4 Norte 18 Noroeste 0 -- -- 88
2020-07-21 20:00:00 17.7 8 Norte 20 Noroeste 0 -- -- 84
2020-07-21 19:00:00 20.4 10 Noroeste 23 Norte 0 -- -- 72
2020-07-21 18:00:00 21.7 9 Norte 20 Nordeste 0 -- -- 66
2020-07-21 17:00:00 22.5 10 Norte 22 Norte 0 -- -- 65
2020-07-21 16:00:00 22.5 9 Norte 23 Norte 0 -- -- 64
2020-07-21 15:00:00 22.1 13 Norte 30 Nordeste 0 -- -- 64
2020-07-21 14:00:00 21.8 13 Norte 28 Norte 0 -- -- 67
2020-07-21 13:00:00 22.3 13 Norte 24 Norte 0 -- -- 63
2020-07-21 12:00:00 21.5 9 Norte 23 Norte 0 -- -- 68
2020-07-21 11:00:00 21.4 10 Norte 18 Norte 0 -- -- 66
2020-07-21 10:00:00 19.9 9 Norte 14 Norte 0 -- -- 71
2020-07-21 09:00:00 16.6 6 Noroeste 13 Noroeste 0 -- -- 88
2020-07-21 08:00:00 16 3 Noroeste 12 Norte 0 -- -- 91
2020-07-21 07:00:00 15.8 0 Calma 10 Norte 0 -- -- 93
2020-07-21 06:00:00 16.1 5 Norte 9 Norte 0 -- -- 93
2020-07-21 05:00:00 16.1 3 Norte 10 Noroeste 0 -- -- 92
2020-07-21 04:00:00 16.3 3 Este 12 Noroeste 0 -- -- 92
2020-07-21 03:00:00 16.1 6 Noroeste 21 Noroeste 0 -- -- 91
2020-07-21 02:00:00 16.3 7 Noroeste 22 Oeste 0 -- -- 83
2020-07-21 01:00:00 16 11 Noroeste 20 Noroeste 0 -- -- 92
2020-07-21 00:00:00 16.5 9 Noroeste 21 Noroeste 0 -- -- 91
2020-07-20 23:00:00 16.5 8 Noroeste 19 Norte 0 -- -- 91
2020-07-20 22:00:00 16.6 8 Noroeste 23 Oeste 0 -- -- 89
2020-07-20 21:00:00 16.8 12 Noroeste 22 Norte 0 -- -- 90
2020-07-20 20:00:00 18.3 12 Noroeste 26 Noroeste 0 -- -- 82
2020-07-20 19:00:00 20.3 18 Noroeste 29 Noroeste 0 -- -- 70
2020-07-20 18:00:00 22.1 14 Norte 27 Norte 0 -- -- 67
2020-07-20 17:00:00 23.4 14 Norte 29 Noroeste 0 -- -- 63
2020-07-20 16:00:00 24.9 14 Norte 26 Norte 0 -- -- 60
2020-07-20 15:00:00 24.1 14 Norte 26 Norte 0 -- -- 61
2020-07-20 14:00:00 24.5 15 Norte 27 Norte 0 -- -- 60
2020-07-20 13:00:00 24.9 15 Norte 23 Norte 0 -- -- 60
2020-07-20 12:00:00 24 13 Nordeste 24 Nordeste 0 -- -- 64
2020-07-20 11:00:00 24.5 13 Norte 23 Norte 0 -- -- 59
2020-07-20 10:00:00 25.2 5 Sudeste 10 Sudeste 0 -- -- 56
2020-07-20 09:00:00 22.1 5 Sudeste 10 Sudeste 0 -- -- 66
2020-07-20 08:00:00 19.9 2 Sudeste 13 Oeste 0 -- -- 38
2020-07-20 07:00:00 20.8 5 Noroeste 16 Noroeste 0 -- -- 32
2020-07-20 06:00:00 21.8 5 Noroeste 19 Noroeste 0 -- -- 24
2020-07-20 05:00:00 23 5 Noroeste 13 Oeste 0 -- -- 35
2020-07-20 04:00:00 22.1 7 Noroeste 19 Oeste 0 -- -- 44
2020-07-20 03:00:00 21.1 4 Noroeste 13 Noroeste 0 -- -- 44
2020-07-20 02:00:00 21.3 7 Noroeste 15 Noroeste 0 -- -- 46
2020-07-20 01:00:00 21.7 4 Oeste 11 Oeste 0 -- -- 45
2020-07-20 00:00:00 23.1 6 Oeste 17 Noroeste 0 -- -- 40
2020-07-19 23:00:00 21.8 7 Noroeste 17 Noroeste 0 -- -- 44
2020-07-19 22:00:00 23.1 8 Noroeste 18 Noroeste 0 -- -- 44
2020-07-19 21:00:00 24.1 9 Noroeste 17 Noroeste 0 -- -- 41
2020-07-19 20:00:00 25.9 5 Noroeste 14 Norte 0 -- -- 37
2020-07-19 19:00:00 28.7 7 Norte 15 Norte 0 -- -- 34
2020-07-19 18:00:00 29.7 8 Norte 19 Norte 0 -- -- 30
2020-07-19 17:00:00 31.1 10 Norte 18 Norte 0 -- -- 29
2020-07-19 16:00:00 32 7 Nordeste 19 Nordeste 0 -- -- 27
2020-07-19 15:00:00 32.1 7 Nordeste 16 Nordeste 0 -- -- 27
2020-07-19 14:00:00 31.2 8 Nordeste 16 Nordeste 0 -- -- 28
2020-07-19 13:00:00 31.6 8 Nordeste 19 Norte 0 -- -- 30
2020-07-19 12:00:00 32.9 8 Nordeste 16 Nordeste 0 -- -- 24
2020-07-19 11:00:00 32.4 8 Este 16 Este 0 -- -- 24
2020-07-19 10:00:00 30 4 Norte 12 Nordeste 0 -- -- 26
2020-07-19 09:00:00 28.8 3 Nordeste 8 Sur 0 -- -- 29
2020-07-19 08:00:00 22 3 Oeste 11 Sudoeste 0 -- -- 44
2020-07-19 07:00:00 21.9 4 Oeste 12 Sur 0 -- -- 45
2020-07-19 06:00:00 21.4 5 Sudoeste 11 Nordeste 0 -- -- 42
2020-07-19 05:00:00 23.2 5 Noroeste 13 Sudeste 0 -- -- 41
2020-07-19 04:00:00 22.7 4 Sudoeste 12 Sudoeste 0 -- -- 44
2020-07-19 03:00:00 25 4 Sur 18 Sudeste 0 -- -- 39
2020-07-19 02:00:00 24.4 3 Norte 12 Norte 0 -- -- 42
2020-07-19 01:00:00 22.7 4 Oeste 10 Sudeste 0 -- -- 43
2020-07-19 00:00:00 23.5 3 Sur 9 Noroeste 0 -- -- 42
2020-07-18 23:00:00 22.7 3 Oeste 10 Oeste 0 -- -- 44
2020-07-18 22:00:00 24.8 6 Sudoeste 10 Sur 0 -- -- 34
2020-07-18 21:00:00 24.3 5 Oeste 11 Oeste 0 -- -- 40
2020-07-18 20:00:00 29.8 0 Calma 9 Noroeste 0 -- -- 29
2020-07-18 19:00:00 30.9 6 Norte 13 Noroeste 0 -- -- 24
2020-07-18 18:00:00 32.3 8 Nordeste 15 Nordeste 0 -- -- 25
2020-07-18 17:00:00 31.4 6 Nordeste 15 Norte 0 -- -- 27
2020-07-18 16:00:00 32.2 7 Este 15 Nordeste 0 -- -- 35
2020-07-18 15:00:00 31.6 8 Nordeste 17 Nordeste 0 -- -- 37
2020-07-18 14:00:00 32.4 9 Nordeste 18 Nordeste 0 -- -- 32
2020-07-18 13:00:00 32.8 6 Nordeste 12 Norte 0 -- -- 27
2020-07-18 12:00:00 30.3 6 Nordeste 14 Nordeste 0 -- -- 31
2020-07-18 11:00:00 28.7 4 Este 9 Este 0 -- -- 34
2020-07-18 10:00:00 30.3 5 Este 8 Este 0 -- -- 31
2020-07-18 09:00:00 28.1 2 Este 4 Este 0 -- -- 33
2020-07-18 08:00:00 22.1 0 Calma 5 Nordeste 0 -- -- 37
2020-07-18 07:00:00 19.5 4 Sudoeste 6 Sudoeste 0 -- -- 43
2020-07-18 06:00:00 20.6 4 Oeste 8 Oeste 0 -- -- 37
2020-07-18 05:00:00 20.7 4 Noroeste 8 Noroeste 0 -- -- 22
2020-07-18 04:00:00 21.7 3 Oeste 6 Oeste 0 -- -- 20
2020-07-18 03:00:00 20.5 4 Sudoeste 7 Oeste 0 -- -- 26
2020-07-18 02:00:00 21.8 3 Oeste 9 Noroeste 0 -- -- 20
2020-07-18 01:00:00 21.8 6 Oeste 9 Oeste 0 -- -- 18
2020-07-18 00:00:00 21.8 6 Oeste 10 Oeste 0 -- -- 20
2020-07-17 23:00:00 21.8 6 Oeste 9 Oeste 0 -- -- 20
2020-07-17 22:00:00 21.9 7 Oeste 10 Oeste 0 -- -- 21
2020-07-17 21:00:00 22.6 4 Oeste 10 Noroeste 0 -- -- 20
2020-07-17 20:00:00 26.3 3 Noroeste 6 Oeste 0 -- -- 21
2020-07-17 19:00:00 28.9 3 Norte 9 Nordeste 0 -- -- 17
2020-07-17 18:00:00 28.5 5 Nordeste 10 Nordeste 0 -- -- 53
2020-07-17 17:00:00 28.6 5 Nordeste 13 Nordeste 0 -- -- 42
2020-07-17 16:00:00 28 3 Este 8 Nordeste 0 -- -- 28
2020-07-17 15:00:00 26.5 5 Nordeste 13 Nordeste 0 -- -- 58
2020-07-17 14:00:00 28.6 6 Nordeste 13 Nordeste 0 -- -- 43
2020-07-17 13:00:00 30.6 5 Nordeste 10 Nordeste 0 -- -- 21
2020-07-17 12:00:00 29.6 4 Este 9 Nordeste 0 -- -- 26
2020-07-17 11:00:00 30.3 4 Este 9 Este 0 -- -- 41
2020-07-17 10:00:00 29.5 4 Nordeste 8 Este 0 -- -- 28
2020-07-17 09:00:00 27.3 3 Norte 9 Nordeste 0 -- -- 36
2020-07-17 08:00:00 22.2 6 Sudoeste 8 Sudoeste 0 -- -- 45
2020-07-17 07:00:00 20.2 6 Sudoeste 9 Sudoeste 0 -- -- 50
2020-07-17 06:00:00 19 4 Sudoeste 6 Sudoeste 0 -- -- 53
2020-07-17 05:00:00 20.2 4 Sudoeste 8 Sur 0 -- -- 50
2020-07-17 04:00:00 18.9 0 Calma 6 Sudoeste 0 -- -- 54
2020-07-17 03:00:00 19.2 0 Calma 0 Calma 0 -- -- 55
2020-07-17 02:00:00 19.9 0 Calma 0 Calma 0 -- -- 53
2020-07-17 01:00:00 19.9 0 Calma 3 Sudeste 0 -- -- 54
2020-07-17 00:00:00 20.1 3 Sur 6 Sudoeste 0 -- -- 53
2020-07-16 23:00:00 21.3 6 Sudoeste 9 Sudoeste 0 -- -- 47
2020-07-16 22:00:00 19.8 6 Sudoeste 8 Sudoeste 0 -- -- 52
2020-07-16 21:00:00 20.9 6 Oeste 8 Oeste 0 -- -- 48
2020-07-16 20:00:00 23.9 0 Calma 6 Nordeste 0 -- -- 66
2020-07-16 19:00:00 27 2 Nordeste 9 Este 0 -- -- 50
2020-07-16 18:00:00 25.8 5 Nordeste 12 Nordeste 0 -- -- 60
2020-07-16 17:00:00 25.4 7 Nordeste 13 Nordeste 0 -- -- 61
2020-07-16 16:00:00 25.9 9 Nordeste 16 Este 0 -- -- 59
2020-07-16 15:00:00 25.9 9 Este 17 Nordeste 0 -- -- 61
2020-07-16 14:00:00 25.2 6 Nordeste 16 Nordeste 0 -- -- 61
2020-07-16 13:00:00 24.2 8 Nordeste 14 Nordeste 0 -- -- 65
2020-07-16 12:00:00 24.9 7 Este 14 Este 0 -- -- 62
2020-07-16 11:00:00 23.8 5 Nordeste 11 Nordeste 0 -- -- 68
2020-07-16 10:00:00 21.1 4 Este 7 Este 0 -- -- 83
2020-07-16 09:00:00 17.3 3 Nordeste 5 Norte 0 -- -- 98
2020-07-16 08:00:00 15.5 0 Calma 4 Norte 0 -- -- 99
2020-07-16 07:00:00 15 0 Calma 6 Noroeste 0 -- -- 98
2020-07-16 06:00:00 14.4 3 Noroeste 6 Norte 0 -- -- 99
2020-07-16 05:00:00 15.1 2 Oeste 7 Oeste 0 -- -- 98
2020-07-16 04:00:00 15.6 3 Oeste 7 Norte 0 -- -- 98
2020-07-16 03:00:00 15.1 3 Oeste 6 Norte 0 -- -- 98
2020-07-16 02:00:00 14.4 3 Oeste 5 Oeste 0 -- -- 97
2020-07-16 01:00:00 14.5 0 Calma 8 Nordeste 0 -- -- 94
2020-07-16 00:00:00 14.4 4 Noroeste 8 Noroeste 0 -- -- 96
2020-07-15 23:00:00 14.6 3 Oeste 5 Oeste 0 -- -- 95
2020-07-15 22:00:00 15.3 2 Sudoeste 12 Noroeste 0 -- -- 94
2020-07-15 21:00:00 17.1 0 Calma 13 Noroeste 0 -- -- 89
2020-07-15 20:00:00 18.3 10 Norte 18 Noroeste 0 -- -- 88
2020-07-15 19:00:00 21 10 Norte 23 Noroeste 0 -- -- 77
2020-07-15 18:00:00 21.7 15 Norte 25 Norte 0 -- -- 72
2020-07-15 17:00:00 22.8 14 Norte 27 Norte 0 -- -- 71
2020-07-15 16:00:00 23.3 15 Norte 31 Norte 0 -- -- 68
2020-07-15 15:00:00 23.5 15 Norte 29 Norte 0 -- -- 68
2020-07-15 14:00:00 24.2 15 Norte 29 Norte 0 -- -- 63
2020-07-15 13:00:00 24.3 15 Norte 26 Norte 0 -- -- 64
2020-07-15 12:00:00 24.5 13 Norte 26 Noroeste 0 -- -- 62
2020-07-15 11:00:00 25.1 9 Norte 22 Noroeste 0 -- -- 58
2020-07-15 10:00:00 24.6 4 Nordeste 16 Noroeste 0 -- -- 50
2020-07-15 09:00:00 22.1 6 Sudeste 13 Noroeste 0 -- -- 62
2020-07-15 08:00:00 16.9 5 Noroeste 22 Noroeste 0 -- -- 72
2020-07-15 07:00:00 16.2 5 Sudoeste 18 Noroeste 0 -- -- 69
2020-07-15 06:00:00 18 5 Oeste 22 Noroeste 0 -- -- 45
2020-07-15 05:00:00 19.7 8 Noroeste 24 Oeste 0 -- -- 45
2020-07-15 04:00:00 18.8 5 Norte 32 Noroeste 0 -- -- 65
2020-07-15 03:00:00 18.9 9 Noroeste 30 Noroeste 0 -- -- 64
2020-07-15 02:00:00 19.7 10 Noroeste 29 Noroeste 0 -- -- 61
2020-07-15 01:00:00 19.1 11 Noroeste 31 Noroeste 0 -- -- 64
2020-07-15 00:00:00 19.7 11 Noroeste 24 Oeste 0 -- -- 60
2020-07-14 23:00:00 19.2 8 Noroeste 21 Noroeste 0 -- -- 58
2020-07-14 22:00:00 18.7 7 Oeste 27 Noroeste 0 -- -- 67
2020-07-14 21:00:00 18.6 12 Noroeste 29 Oeste 0 -- -- 74
2020-07-14 20:00:00 19 11 Noroeste 31 Noroeste 0 -- -- 76
2020-07-14 19:00:00 20.6 9 Noroeste 37 Noroeste 0 -- -- 77
2020-07-14 18:00:00 21.3 14 Noroeste 37 Oeste 0 -- -- 71
2020-07-14 17:00:00 22.1 12 Noroeste 32 Noroeste 0 -- -- 69
2020-07-14 16:00:00 24.2 14 Noroeste 33 Noroeste 0 -- -- 61
2020-07-14 15:00:00 24.9 16 Noroeste 32 Noroeste 0 -- -- 58
2020-07-14 14:00:00 22.7 21 Noroeste 36 Norte 0 -- -- 66
2020-07-14 13:00:00 23 17 Noroeste 34 Noroeste 0 -- -- 61
2020-07-14 12:00:00 21.5 18 Noroeste 35 Noroeste 0 -- -- 68
2020-07-14 11:00:00 23.9 12 Noroeste 32 Noroeste 0 -- -- 58
2020-07-14 10:00:00 21.7 10 Oeste 28 Oeste 0 -- -- 62
2020-07-14 09:00:00 16 13 Oeste 28 Oeste 0 -- -- 89
2020-07-14 08:00:00 15.3 12 Noroeste 31 Oeste 0 -- -- 94
2020-07-14 07:00:00 14.8 13 Oeste 33 Oeste 0 -- -- 93
2020-07-14 06:00:00 14.9 16 Oeste 31 Oeste 0 -- -- 94
2020-07-14 05:00:00 14.5 7 Oeste 21 Oeste 0 -- -- 93
2020-07-14 04:00:00 13.2 4 Nordeste 13 Sur 0 -- -- 94
2020-07-14 03:00:00 13 6 Sur 10 Este 0 -- -- 96
2020-07-14 02:00:00 12.7 4 Sur 11 Sudoeste 0 -- -- 93
2020-07-14 01:00:00 14 4 Este 13 Sudeste 0 -- -- 92
2020-07-14 00:00:00 14.3 4 Sudoeste 12 Sudeste 0 -- -- 93
2020-07-13 23:00:00 14.4 6 Sudeste 11 Sudeste 0 -- -- 95
2020-07-13 22:00:00 14.5 3 Oeste 12 Sur 0 -- -- 93
2020-07-13 21:00:00 15.8 4 Este 12 Noroeste 0 -- -- 90
2020-07-13 20:00:00 18.4 9 Noroeste 19 Noroeste 0 -- -- 81
2020-07-13 19:00:00 22.5 10 Norte 26 Noroeste 0 -- -- 66
2020-07-13 18:00:00 24.6 12 Norte 25 Noroeste 0 -- -- 61
2020-07-13 17:00:00 25.1 12 Norte 22 Norte 0 -- -- 59
2020-07-13 16:00:00 25.2 11 Nordeste 21 Norte 0 -- -- 60
2020-07-13 15:00:00 25.1 11 Nordeste 20 Este 0 -- -- 59
2020-07-13 14:00:00 25.6 10 Nordeste 18 Este 0 -- -- 58
2020-07-13 13:00:00 25 9 Este 17 Este 0 -- -- 60
2020-07-13 12:00:00 22.6 6 Nordeste 14 Nordeste 0 -- -- 69
2020-07-13 11:00:00 21.9 6 Nordeste 11 Nordeste 0 -- -- 72
2020-07-13 10:00:00 20.3 4 Nordeste 10 Nordeste 0 -- -- 78
2020-07-13 09:00:00 18.9 3 Nordeste 6 Nordeste 0 -- -- 82
2020-07-13 08:00:00 17.2 3 Norte 10 Norte 0 -- -- 82
2020-07-13 07:00:00 15.6 2 Sudoeste 8 Nordeste 0 -- -- 60
2020-07-13 06:00:00 17.4 2 Oeste 5 Oeste 0 -- -- 54
2020-07-13 05:00:00 17.5 4 Oeste 7 Oeste 0 -- -- 56
2020-07-13 04:00:00 17.8 3 Sur 7 Sur 0 -- -- 53
2020-07-13 03:00:00 18.5 3 Sudoeste 9 Sudeste 0 -- -- 48
2020-07-13 02:00:00 19.9 5 Sudoeste 10 Sudoeste 0 -- -- 43
2020-07-13 01:00:00 19.3 2 Sur 9 Sudeste 0 -- -- 44
2020-07-13 00:00:00 19.3 5 Sudoeste 10 Sudoeste 0 -- -- 43
2020-07-12 23:00:00 14.5 4 Sudeste 8 Oeste 0 -- -- 87
2020-07-12 22:00:00 14.9 0 Calma 8 Nordeste 0 -- -- 73
2020-07-12 21:00:00 16.7 4 Sur 8 Sudoeste 0 -- -- 90
2020-07-12 20:00:00 19 3 Este 11 Este 0 -- -- 84
2020-07-12 19:00:00 23.1 5 Nordeste 10 Nordeste 0 -- -- 68
2020-07-12 18:00:00 24.1 6 Nordeste 14 Nordeste 0 -- -- 65
2020-07-12 17:00:00 25.8 8 Nordeste 14 Norte 0 -- -- 59
2020-07-12 16:00:00 26.5 6 Nordeste 17 Este 0 -- -- 55
2020-07-12 15:00:00 26.4 8 Nordeste 17 Nordeste 0 -- -- 56
2020-07-12 14:00:00 25.7 7 Nordeste 15 Este 0 -- -- 58
2020-07-12 13:00:00 26.3 6 Nordeste 14 Nordeste 0 -- -- 56
2020-07-12 12:00:00 25.4 8 Nordeste 14 Nordeste 0 -- -- 58
2020-07-12 11:00:00 25 6 Nordeste 12 Este 0 -- -- 56
2020-07-12 10:00:00 25.5 4 Este 9 Este 0 -- -- 53
2020-07-12 09:00:00 26.3 4 Este 7 Este 0 -- -- 53
2020-07-12 08:00:00 19.7 2 Sudoeste 9 Sur 0 -- -- 51
2020-07-12 07:00:00 15.1 5 Sudoeste 11 Sudoeste 0 -- -- 61
2020-07-12 06:00:00 15.5 3 Sudoeste 8 Oeste 0 -- -- 61
2020-07-12 05:00:00 14 4 Sudoeste 9 Sudoeste 0 -- -- 75
2020-07-12 04:00:00 13.2 4 Noroeste 9 Oeste 0 -- -- 85
2020-07-12 03:00:00 14.5 4 Noroeste 13 Sudoeste 0 -- -- 81
2020-07-12 02:00:00 14.6 5 Noroeste 16 Sudoeste 0 -- -- 89
2020-07-12 01:00:00 13.5 3 Oeste 10 Oeste 0 -- -- 92
2020-07-12 00:00:00 14 5 Oeste 10 Noroeste 0 -- -- 87
2020-07-11 23:00:00 14.6 6 Sudoeste 12 Sudoeste 0 -- -- 82
2020-07-11 22:00:00 15.1 4 Oeste 8 Sudoeste 0 -- -- 90
2020-07-11 21:00:00 16.2 2 Norte 7 Nordeste 0 -- -- 87
2020-07-11 20:00:00 19.4 2 Sudoeste 17 Norte 0 -- -- 78
2020-07-11 19:00:00 21.8 10 Norte 22 Norte 0 -- -- 70
2020-07-11 18:00:00 22.9 12 Norte 22 Norte 0 -- -- 66
2020-07-11 17:00:00 25.1 11 Norte 22 Norte 0 -- -- 59
2020-07-11 16:00:00 25.6 11 Norte 22 Norte 0 -- -- 58
2020-07-11 15:00:00 25.3 11 Nordeste 30 Norte 0 -- -- 59
2020-07-11 14:00:00 26.1 9 Nordeste 20 Nordeste 0 -- -- 55
2020-07-11 13:00:00 24.2 11 Nordeste 19 Nordeste 0 -- -- 65
2020-07-11 12:00:00 24.4 8 Nordeste 19 Nordeste 0 -- -- 61
2020-07-11 11:00:00 22.6 9 Nordeste 19 Nordeste 0 -- -- 68
2020-07-11 10:00:00 22.2 9 Norte 17 Norte 0 -- -- 67
2020-07-11 09:00:00 21.1 6 Norte 15 Norte 0 -- -- 68
2020-07-11 08:00:00 15.8 4 Oeste 11 Oeste 0 -- -- 92
2020-07-11 07:00:00 16.1 4 Noroeste 13 Noroeste 0 -- -- 94
2020-07-11 06:00:00 15.8 5 Oeste 17 Noroeste 0 -- -- 94
2020-07-11 05:00:00 15.9 5 Noroeste 16 Oeste 0 -- -- 94
2020-07-11 04:00:00 16.5 5 Noroeste 17 Sudoeste 0 -- -- 93
2020-07-11 03:00:00 16 6 Noroeste 17 Noroeste 0 -- -- 91
2020-07-11 02:00:00 15.9 6 Oeste 22 Oeste 0 -- -- 90
2020-07-11 01:00:00 16.6 7 Oeste 18 Oeste 0 -- -- 91
2020-07-11 00:00:00 16.7 5 Noroeste 18 Noroeste 0 -- -- 93
2020-07-10 23:00:00 16.6 5 Noroeste 19 Oeste 0 -- -- 92
2020-07-10 22:00:00 16.3 7 Oeste 21 Sudoeste 0 -- -- 90
2020-07-10 21:00:00 16.6 5 Oeste 24 Noroeste 0 -- -- 83
2020-07-10 20:00:00 17.5 11 Noroeste 26 Norte 0 -- -- 84
2020-07-10 19:00:00 21.2 12 Noroeste 26 Norte 0 -- -- 70
2020-07-10 18:00:00 21.6 14 Norte 28 Norte 0 -- -- 69
2020-07-10 17:00:00 23.4 13 Norte 28 Noroeste 0 -- -- 63
2020-07-10 16:00:00 23.4 16 Norte 27 Norte 0 -- -- 62
2020-07-10 15:00:00 23.3 15 Norte 27 Norte 0 -- -- 62
2020-07-10 14:00:00 23.3 14 Norte 28 Norte 0 -- -- 63
2020-07-10 13:00:00 23.1 15 Norte 27 Norte 0 -- -- 63
2020-07-10 12:00:00 21.9 13 Norte 25 Norte 0 -- -- 66
2020-07-10 11:00:00 20.8 12 Norte 21 Norte 0 -- -- 68
2020-07-10 10:00:00 17.9 8 Noroeste 18 Noroeste 0 -- -- 82
2020-07-10 09:00:00 16.9 4 Noroeste 14 Norte 0 -- -- 86
2020-07-10 08:00:00 16 6 Noroeste 14 Oeste 0 -- -- 91
2020-07-10 07:00:00 15.6 6 Oeste 18 Norte 0 -- -- 92
2020-07-10 06:00:00 15.6 8 Noroeste 19 Oeste 0 -- -- 92
2020-07-10 05:00:00 15.6 8 Noroeste 19 Oeste 0 -- -- 92
2020-07-10 04:00:00 15.6 7 Noroeste 17 Noroeste 0 -- -- 93
2020-07-10 03:00:00 15.5 7 Noroeste 18 Noroeste 0 -- -- 92
2020-07-10 02:00:00 15.7 8 Noroeste 20 Noroeste 0 -- -- 92
2020-07-10 01:00:00 15.9 10 Noroeste 19 Noroeste 0 -- -- 93
2020-07-10 00:00:00 16.2 6 Noroeste 23 Noroeste 0 -- -- 93
2020-07-09 23:00:00 15.3 10 Noroeste 23 Norte 0 -- -- 94
2020-07-09 22:00:00 15.1 0 Calma 13 Noroeste 0 -- -- 92
2020-07-09 21:00:00 16.6 0 Calma 5 Sur 0 -- -- 88
2020-07-09 20:00:00 19.2 3 Sur 15 Norte 0 -- -- 79
2020-07-09 19:00:00 22.8 6 Nordeste 17 Nordeste 0 -- -- 67
2020-07-09 18:00:00 24.8 8 Este 18 Nordeste 0 -- -- 60
2020-07-09 17:00:00 25.4 8 Este 16 Este 0 -- -- 57
2020-07-09 16:00:00 27.5 10 Este 20 Este 0 -- -- 52
2020-07-09 15:00:00 27.2 12 Nordeste 17 Nordeste 0 -- -- 53
2020-07-09 14:00:00 26.9 8 Nordeste 15 Nordeste 0 -- -- 55
2020-07-09 13:00:00 28.3 6 Nordeste 15 Nordeste 0 -- -- 49
2020-07-09 12:00:00 28.5 6 Nordeste 12 Nordeste 0 -- -- 45
2020-07-09 11:00:00 28.1 4 Nordeste 12 Este 0 -- -- 28
2020-07-09 10:00:00 27.7 5 Norte 10 Norte 0 -- -- 22
2020-07-09 09:00:00 27.4 4 Nordeste 8 Nordeste 0 -- -- 21
2020-07-09 08:00:00 20.7 4 Noroeste 10 Oeste 0 -- -- 29
2020-07-09 07:00:00 18.9 5 Oeste 11 Oeste 0 -- -- 23
2020-07-09 06:00:00 19.5 6 Oeste 12 Oeste 0 -- -- 24
2020-07-09 05:00:00 19.6 4 Oeste 9 Noroeste 0 -- -- 25
2020-07-09 04:00:00 19.4 5 Oeste 10 Oeste 0 -- -- 30
2020-07-09 03:00:00 20.6 4 Oeste 10 Oeste 0 -- -- 34
2020-07-09 02:00:00 20.3 5 Oeste 12 Oeste 0 -- -- 33
2020-07-09 01:00:00 21.2 7 Oeste 11 Oeste 0 -- -- 30
2020-07-09 00:00:00 20.8 4 Noroeste 9 Oeste 0 -- -- 37
2020-07-08 23:00:00 21.5 4 Sudoeste 8 Sudoeste 0 -- -- 34
2020-07-08 22:00:00 20.5 4 Oeste 10 Sudoeste 0 -- -- 41
2020-07-08 21:00:00 21.5 2 Sur 6 Sudoeste 0 -- -- 42
2020-07-08 20:00:00 26.1 0 Calma 8 Nordeste 0 -- -- 35
2020-07-08 19:00:00 27.9 4 Nordeste 12 Nordeste 0 -- -- 29
2020-07-08 18:00:00 29.8 6 Nordeste 14 Nordeste 0 -- -- 36
2020-07-08 17:00:00 30.3 6 Norte 17 Nordeste 0 -- -- 28
2020-07-08 16:00:00 31.2 10 Norte 20 Noroeste 0 -- -- 29
2020-07-08 15:00:00 27.9 8 Nordeste 14 Nordeste 0 -- -- 54
2020-07-08 14:00:00 30.1 8 Nordeste 15 Nordeste 0 -- -- 48
2020-07-08 13:00:00 31.4 8 Nordeste 15 Nordeste 0 -- -- 35
2020-07-08 12:00:00 33.4 7 Nordeste 18 Nordeste 0 -- -- 30
2020-07-08 11:00:00 29.4 4 Nordeste 14 Nordeste 0 -- -- 49
2020-07-08 10:00:00 31.2 4 Norte 13 Nordeste 0 -- -- 23
2020-07-08 09:00:00 29.6 2 Noroeste 10 Oeste 0 -- -- 25
2020-07-08 08:00:00 24.1 4 Oeste 12 Oeste 0 -- -- 32
2020-07-08 07:00:00 23 3 Sudoeste 12 Oeste 0 -- -- 31
2020-07-08 06:00:00 24.8 5 Oeste 15 Sudoeste 0 -- -- 27
2020-07-08 05:00:00 24.3 5 Oeste 13 Oeste 0 -- -- 30
2020-07-08 04:00:00 25.3 5 Sudoeste 11 Noroeste 0 -- -- 30
2020-07-08 03:00:00 27 4 Sudoeste 14 Nordeste 0 -- -- 27
2020-07-08 02:00:00 25.7 6 Oeste 13 Norte 0 -- -- 31
2020-07-08 01:00:00 26.1 5 Oeste 13 Noroeste 0 -- -- 29
2020-07-08 00:00:00 26.6 5 Oeste 18 Noroeste 0 -- -- 27